sensor_id;sensor_type;location;lat;lon;timestamp;P1;durP1;ratioP1;P2;durP2;ratioP2
5604;SDS011;9297;47.258;11.362;2024-02-14T00:00:00;6.73;;;3.30;;
5604;SDS011;9297;47.258;11.362;2024-02-14T00:02:27;4.10;;;3.70;;
5604;SDS011;9297;47.258;11.362;2024-02-14T00:04:54;3.40;;;2.80;;
5604;SDS011;9297;47.258;11.362;2024-02-14T00:07:23;3.80;;;3.40;;
5604;SDS011;9297;47.258;11.362;2024-02-14T00:09:50;3.63;;;3.33;;
5604;SDS011;9297;47.258;11.362;2024-02-14T00:12:17;3.60;;;2.87;;
5604;SDS011;9297;47.258;11.362;2024-02-14T00:14:44;4.73;;;2.60;;
5604;SDS011;9297;47.258;11.362;2024-02-14T00:17:11;3.87;;;3.00;;
5604;SDS011;9297;47.258;11.362;2024-02-14T00:19:38;4.73;;;3.10;;
5604;SDS011;9297;47.258;11.362;2024-02-14T00:22:05;4.70;;;2.90;;
5604;SDS011;9297;47.258;11.362;2024-02-14T00:24:33;5.23;;;3.33;;
5604;SDS011;9297;47.258;11.362;2024-02-14T00:27:00;5.97;;;3.50;;
5604;SDS011;9297;47.258;11.362;2024-02-14T00:29:28;5.57;;;3.40;;
5604;SDS011;9297;47.258;11.362;2024-02-14T00:31:55;4.67;;;3.47;;
5604;SDS011;9297;47.258;11.362;2024-02-14T00:34:22;5.17;;;3.60;;
5604;SDS011;9297;47.258;11.362;2024-02-14T00:36:49;6.03;;;3.47;;
5604;SDS011;9297;47.258;11.362;2024-02-14T00:39:16;4.13;;;3.07;;
5604;SDS011;9297;47.258;11.362;2024-02-14T00:41:45;5.37;;;2.97;;
5604;SDS011;9297;47.258;11.362;2024-02-14T00:44:13;3.93;;;3.00;;
5604;SDS011;9297;47.258;11.362;2024-02-14T00:46:40;3.43;;;2.93;;
5604;SDS011;9297;47.258;11.362;2024-02-14T00:49:07;4.57;;;3.53;;
5604;SDS011;9297;47.258;11.362;2024-02-14T00:51:34;6.13;;;3.50;;
5604;SDS011;9297;47.258;11.362;2024-02-14T00:54:01;5.23;;;3.50;;
5604;SDS011;9297;47.258;11.362;2024-02-14T00:56:28;4.13;;;3.23;;
5604;SDS011;9297;47.258;11.362;2024-02-14T00:58:56;5.00;;;3.27;;
5604;SDS011;9297;47.258;11.362;2024-02-14T01:01:23;4.57;;;3.73;;
5604;SDS011;9297;47.258;11.362;2024-02-14T01:03:50;5.73;;;3.70;;
5604;SDS011;9297;47.258;11.362;2024-02-14T01:06:17;5.43;;;3.47;;
5604;SDS011;9297;47.258;11.362;2024-02-14T01:08:45;5.50;;;3.30;;
5604;SDS011;9297;47.258;11.362;2024-02-14T01:11:12;3.83;;;3.30;;
5604;SDS011;9297;47.258;11.362;2024-02-14T01:13:39;4.07;;;3.20;;
5604;SDS011;9297;47.258;11.362;2024-02-14T01:16:07;5.40;;;4.10;;
5604;SDS011;9297;47.258;11.362;2024-02-14T01:18:34;5.67;;;3.60;;
5604;SDS011;9297;47.258;11.362;2024-02-14T01:21:01;6.07;;;4.13;;
5604;SDS011;9297;47.258;11.362;2024-02-14T01:23:29;4.40;;;4.00;;
5604;SDS011;9297;47.258;11.362;2024-02-14T01:25:56;4.83;;;4.00;;
5604;SDS011;9297;47.258;11.362;2024-02-14T01:28:23;6.97;;;3.90;;
5604;SDS011;9297;47.258;11.362;2024-02-14T01:30:50;5.20;;;3.37;;
5604;SDS011;9297;47.258;11.362;2024-02-14T01:33:18;5.73;;;3.80;;
5604;SDS011;9297;47.258;11.362;2024-02-14T01:35:45;4.60;;;4.20;;
5604;SDS011;9297;47.258;11.362;2024-02-14T01:38:12;5.30;;;4.27;;
5604;SDS011;9297;47.258;11.362;2024-02-14T01:40:42;5.90;;;4.20;;
5604;SDS011;9297;47.258;11.362;2024-02-14T01:43:09;4.60;;;3.90;;
5604;SDS011;9297;47.258;11.362;2024-02-14T01:45:37;6.17;;;3.90;;
5604;SDS011;9297;47.258;11.362;2024-02-14T01:48:04;4.20;;;3.77;;
5604;SDS011;9297;47.258;11.362;2024-02-14T01:50:34;4.50;;;4.10;;
5604;SDS011;9297;47.258;11.362;2024-02-14T01:53:02;4.40;;;3.73;;
5604;SDS011;9297;47.258;11.362;2024-02-14T01:55:30;5.87;;;3.90;;
5604;SDS011;9297;47.258;11.362;2024-02-14T01:57:57;4.20;;;3.50;;
5604;SDS011;9297;47.258;11.362;2024-02-14T02:00:25;4.77;;;4.27;;
5604;SDS011;9297;47.258;11.362;2024-02-14T02:02:52;4.70;;;4.27;;
5604;SDS011;9297;47.258;11.362;2024-02-14T02:05:19;4.30;;;3.67;;
5604;SDS011;9297;47.258;11.362;2024-02-14T02:07:47;4.33;;;3.80;;
5604;SDS011;9297;47.258;11.362;2024-02-14T02:10:15;3.53;;;3.23;;
5604;SDS011;9297;47.258;11.362;2024-02-14T02:12:42;5.07;;;3.93;;
5604;SDS011;9297;47.258;11.362;2024-02-14T02:15:09;6.13;;;3.53;;
5604;SDS011;9297;47.258;11.362;2024-02-14T02:17:36;4.53;;;3.30;;
5604;SDS011;9297;47.258;11.362;2024-02-14T02:20:03;4.30;;;3.33;;
5604;SDS011;9297;47.258;11.362;2024-02-14T02:22:31;4.97;;;3.70;;
5604;SDS011;9297;47.258;11.362;2024-02-14T02:25:00;3.27;;;3.03;;
5604;SDS011;9297;47.258;11.362;2024-02-14T02:27:27;3.43;;;3.10;;
5604;SDS011;9297;47.258;11.362;2024-02-14T02:29:54;4.47;;;3.43;;
5604;SDS011;9297;47.258;11.362;2024-02-14T02:32:21;4.87;;;2.97;;
5604;SDS011;9297;47.258;11.362;2024-02-14T02:34:48;3.80;;;2.97;;
5604;SDS011;9297;47.258;11.362;2024-02-14T02:37:15;4.97;;;3.43;;
5604;SDS011;9297;47.258;11.362;2024-02-14T02:39:42;3.40;;;3.03;;
5604;SDS011;9297;47.258;11.362;2024-02-14T02:42:10;5.30;;;4.23;;
5604;SDS011;9297;47.258;11.362;2024-02-14T02:44:38;3.73;;;3.40;;
5604;SDS011;9297;47.258;11.362;2024-02-14T02:47:07;5.70;;;4.03;;
5604;SDS011;9297;47.258;11.362;2024-02-14T02:49:35;3.83;;;3.40;;
5604;SDS011;9297;47.258;11.362;2024-02-14T02:52:02;3.80;;;3.33;;
5604;SDS011;9297;47.258;11.362;2024-02-14T02:54:30;5.00;;;3.70;;
5604;SDS011;9297;47.258;11.362;2024-02-14T02:56:57;3.90;;;3.47;;
5604;SDS011;9297;47.258;11.362;2024-02-14T02:59:25;4.00;;;3.60;;
5604;SDS011;9297;47.258;11.362;2024-02-14T03:01:54;3.80;;;3.40;;
5604;SDS011;9297;47.258;11.362;2024-02-14T03:04:21;4.43;;;3.77;;
5604;SDS011;9297;47.258;11.362;2024-02-14T03:06:53;5.80;;;3.67;;
5604;SDS011;9297;47.258;11.362;2024-02-14T03:09:20;3.80;;;3.50;;
5604;SDS011;9297;47.258;11.362;2024-02-14T03:11:47;4.30;;;3.50;;
5604;SDS011;9297;47.258;11.362;2024-02-14T03:14:15;3.73;;;2.80;;
5604;SDS011;9297;47.258;11.362;2024-02-14T03:16:43;3.70;;;3.40;;
5604;SDS011;9297;47.258;11.362;2024-02-14T03:19:10;4.63;;;3.50;;
5604;SDS011;9297;47.258;11.362;2024-02-14T03:21:37;5.17;;;3.40;;
5604;SDS011;9297;47.258;11.362;2024-02-14T03:24:04;3.70;;;3.40;;
5604;SDS011;9297;47.258;11.362;2024-02-14T03:26:32;4.97;;;3.60;;
5604;SDS011;9297;47.258;11.362;2024-02-14T03:28:59;5.97;;;3.43;;
5604;SDS011;9297;47.258;11.362;2024-02-14T03:31:40;5.80;;;3.63;;
5604;SDS011;9297;47.258;11.362;2024-02-14T03:34:09;3.80;;;3.40;;
5604;SDS011;9297;47.258;11.362;2024-02-14T03:36:36;4.40;;;3.47;;
5604;SDS011;9297;47.258;11.362;2024-02-14T03:39:05;3.97;;;3.67;;
5604;SDS011;9297;47.258;11.362;2024-02-14T03:41:33;4.10;;;3.70;;
5604;SDS011;9297;47.258;11.362;2024-02-14T03:44:00;3.43;;;3.13;;
5604;SDS011;9297;47.258;11.362;2024-02-14T03:46:27;4.57;;;3.77;;
5604;SDS011;9297;47.258;11.362;2024-02-14T03:48:54;4.13;;;2.90;;
5604;SDS011;9297;47.258;11.362;2024-02-14T03:51:23;5.97;;;3.33;;
5604;SDS011;9297;47.258;11.362;2024-02-14T03:53:50;3.77;;;3.20;;
5604;SDS011;9297;47.258;11.362;2024-02-14T03:56:17;3.70;;;3.33;;
5604;SDS011;9297;47.258;11.362;2024-02-14T03:58:44;3.87;;;3.20;;
5604;SDS011;9297;47.258;11.362;2024-02-14T04:01:11;6.37;;;3.30;;
5604;SDS011;9297;47.258;11.362;2024-02-14T04:03:38;3.50;;;2.97;;
5604;SDS011;9297;47.258;11.362;2024-02-14T04:06:05;4.07;;;2.87;;
5604;SDS011;9297;47.258;11.362;2024-02-14T04:08:33;4.73;;;3.77;;
5604;SDS011;9297;47.258;11.362;2024-02-14T04:11:01;4.13;;;2.87;;
5604;SDS011;9297;47.258;11.362;2024-02-14T04:13:27;4.73;;;3.33;;
5604;SDS011;9297;47.258;11.362;2024-02-14T04:15:55;4.03;;;2.77;;
5604;SDS011;9297;47.258;11.362;2024-02-14T04:18:22;4.63;;;3.20;;
5604;SDS011;9297;47.258;11.362;2024-02-14T04:20:49;3.10;;;2.80;;
5604;SDS011;9297;47.258;11.362;2024-02-14T04:23:16;3.20;;;3.00;;
5604;SDS011;9297;47.258;11.362;2024-02-14T04:25:44;4.57;;;3.07;;
5604;SDS011;9297;47.258;11.362;2024-02-14T04:28:11;3.30;;;3.10;;
5604;SDS011;9297;47.258;11.362;2024-02-14T04:30:38;3.83;;;3.43;;
5604;SDS011;9297;47.258;11.362;2024-02-14T04:33:05;4.43;;;3.03;;
5604;SDS011;9297;47.258;11.362;2024-02-14T04:35:37;4.83;;;3.13;;
5604;SDS011;9297;47.258;11.362;2024-02-14T04:38:05;3.53;;;3.23;;
5604;SDS011;9297;47.258;11.362;2024-02-14T04:40:31;3.63;;;3.33;;
5604;SDS011;9297;47.258;11.362;2024-02-14T04:43:00;3.63;;;3.20;;
5604;SDS011;9297;47.258;11.362;2024-02-14T04:45:27;3.20;;;2.90;;
5604;SDS011;9297;47.258;11.362;2024-02-14T04:47:54;3.80;;;3.50;;
5604;SDS011;9297;47.258;11.362;2024-02-14T04:50:21;5.83;;;2.80;;
5604;SDS011;9297;47.258;11.362;2024-02-14T04:52:48;3.33;;;3.00;;
5604;SDS011;9297;47.258;11.362;2024-02-14T04:55:15;2.73;;;2.53;;
5604;SDS011;9297;47.258;11.362;2024-02-14T04:57:42;3.30;;;2.47;;
5604;SDS011;9297;47.258;11.362;2024-02-14T05:00:11;3.60;;;3.30;;
5604;SDS011;9297;47.258;11.362;2024-02-14T05:02:39;3.83;;;3.10;;
5604;SDS011;9297;47.258;11.362;2024-02-14T05:05:06;4.30;;;3.90;;
5604;SDS011;9297;47.258;11.362;2024-02-14T05:07:34;4.50;;;3.73;;
5604;SDS011;9297;47.258;11.362;2024-02-14T05:10:01;4.10;;;3.80;;
5604;SDS011;9297;47.258;11.362;2024-02-14T05:12:28;5.17;;;4.13;;
5604;SDS011;9297;47.258;11.362;2024-02-14T05:14:55;3.90;;;3.60;;
5604;SDS011;9297;47.258;11.362;2024-02-14T05:17:23;4.00;;;3.70;;
5604;SDS011;9297;47.258;11.362;2024-02-14T05:19:50;3.63;;;3.33;;
5604;SDS011;9297;47.258;11.362;2024-02-14T05:22:17;4.17;;;3.80;;
5604;SDS011;9297;47.258;11.362;2024-02-14T05:24:44;4.83;;;3.60;;
5604;SDS011;9297;47.258;11.362;2024-02-14T05:27:11;4.03;;;3.37;;
5604;SDS011;9297;47.258;11.362;2024-02-14T05:29:38;3.43;;;3.13;;
5604;SDS011;9297;47.258;11.362;2024-02-14T05:32:06;3.50;;;3.20;;
5604;SDS011;9297;47.258;11.362;2024-02-14T05:34:34;3.70;;;3.40;;
5604;SDS011;9297;47.258;11.362;2024-02-14T05:37:01;3.70;;;3.40;;
5604;SDS011;9297;47.258;11.362;2024-02-14T05:39:28;4.40;;;4.10;;
5604;SDS011;9297;47.258;11.362;2024-02-14T05:41:55;4.03;;;3.73;;
5604;SDS011;9297;47.258;11.362;2024-02-14T05:44:22;4.20;;;3.20;;
5604;SDS011;9297;47.258;11.362;2024-02-14T05:46:50;4.77;;;3.53;;
5604;SDS011;9297;47.258;11.362;2024-02-14T05:49:17;4.90;;;3.20;;
5604;SDS011;9297;47.258;11.362;2024-02-14T05:51:45;5.00;;;3.40;;
5604;SDS011;9297;47.258;11.362;2024-02-14T05:54:12;5.83;;;3.77;;
5604;SDS011;9297;47.258;11.362;2024-02-14T05:56:39;4.43;;;3.27;;
5604;SDS011;9297;47.258;11.362;2024-02-14T05:59:06;4.23;;;3.83;;
5604;SDS011;9297;47.258;11.362;2024-02-14T06:01:34;4.83;;;3.80;;
5604;SDS011;9297;47.258;11.362;2024-02-14T06:04:01;4.47;;;3.90;;
5604;SDS011;9297;47.258;11.362;2024-02-14T06:06:28;4.73;;;3.27;;
5604;SDS011;9297;47.258;11.362;2024-02-14T06:08:56;4.73;;;4.00;;
5604;SDS011;9297;47.258;11.362;2024-02-14T06:11:23;4.20;;;3.80;;
5604;SDS011;9297;47.258;11.362;2024-02-14T06:13:50;5.03;;;3.90;;
5604;SDS011;9297;47.258;11.362;2024-02-14T06:16:17;8.10;;;4.23;;
5604;SDS011;9297;47.258;11.362;2024-02-14T06:18:44;7.40;;;4.20;;
5604;SDS011;9297;47.258;11.362;2024-02-14T06:21:12;5.47;;;3.50;;
5604;SDS011;9297;47.258;11.362;2024-02-14T06:23:39;6.37;;;3.77;;
5604;SDS011;9297;47.258;11.362;2024-02-14T06:26:08;4.40;;;3.67;;
5604;SDS011;9297;47.258;11.362;2024-02-14T06:28:35;4.87;;;3.97;;
5604;SDS011;9297;47.258;11.362;2024-02-14T06:31:02;4.90;;;3.93;;
5604;SDS011;9297;47.258;11.362;2024-02-14T06:33:28;4.60;;;4.03;;
5604;SDS011;9297;47.258;11.362;2024-02-14T06:35:56;5.03;;;4.03;;
5604;SDS011;9297;47.258;11.362;2024-02-14T06:38:23;5.83;;;3.93;;
5604;SDS011;9297;47.258;11.362;2024-02-14T06:40:50;5.73;;;4.20;;
5604;SDS011;9297;47.258;11.362;2024-02-14T06:43:20;4.10;;;3.67;;
5604;SDS011;9297;47.258;11.362;2024-02-14T06:45:47;5.53;;;4.23;;
5604;SDS011;9297;47.258;11.362;2024-02-14T06:48:14;4.30;;;3.40;;
5604;SDS011;9297;47.258;11.362;2024-02-14T06:50:41;5.23;;;3.80;;
5604;SDS011;9297;47.258;11.362;2024-02-14T06:53:08;5.13;;;3.90;;
5604;SDS011;9297;47.258;11.362;2024-02-14T06:55:35;5.80;;;4.27;;
5604;SDS011;9297;47.258;11.362;2024-02-14T06:58:02;8.13;;;4.27;;
5604;SDS011;9297;47.258;11.362;2024-02-14T07:00:30;6.63;;;4.10;;
5604;SDS011;9297;47.258;11.362;2024-02-14T07:02:58;7.57;;;4.43;;
5604;SDS011;9297;47.258;11.362;2024-02-14T07:05:26;10.33;;;4.57;;
5604;SDS011;9297;47.258;11.362;2024-02-14T07:07:53;6.93;;;4.63;;
5604;SDS011;9297;47.258;11.362;2024-02-14T07:10:20;8.23;;;4.57;;
5604;SDS011;9297;47.258;11.362;2024-02-14T07:12:47;3.87;;;3.53;;
5604;SDS011;9297;47.258;11.362;2024-02-14T07:15:14;6.30;;;3.67;;
5604;SDS011;9297;47.258;11.362;2024-02-14T07:17:42;5.13;;;4.27;;
5604;SDS011;9297;47.258;11.362;2024-02-14T07:20:10;5.17;;;3.50;;
5604;SDS011;9297;47.258;11.362;2024-02-14T07:22:37;5.13;;;3.50;;
5604;SDS011;9297;47.258;11.362;2024-02-14T07:25:04;3.47;;;3.17;;
5604;SDS011;9297;47.258;11.362;2024-02-14T07:27:31;7.50;;;3.50;;
5604;SDS011;9297;47.258;11.362;2024-02-14T07:29:58;5.77;;;3.73;;
5604;SDS011;9297;47.258;11.362;2024-02-14T07:32:26;8.23;;;3.57;;
5604;SDS011;9297;47.258;11.362;2024-02-14T07:34:54;5.63;;;3.30;;
5604;SDS011;9297;47.258;11.362;2024-02-14T07:37:21;5.60;;;3.90;;
5604;SDS011;9297;47.258;11.362;2024-02-14T07:39:48;6.53;;;4.00;;
5604;SDS011;9297;47.258;11.362;2024-02-14T07:42:15;6.20;;;3.70;;
5604;SDS011;9297;47.258;11.362;2024-02-14T07:44:42;5.10;;;3.30;;
5604;SDS011;9297;47.258;11.362;2024-02-14T07:47:09;6.10;;;3.60;;
5604;SDS011;9297;47.258;11.362;2024-02-14T07:49:36;3.67;;;3.00;;
5604;SDS011;9297;47.258;11.362;2024-02-14T07:52:05;4.60;;;3.33;;
5604;SDS011;9297;47.258;11.362;2024-02-14T07:54:32;4.27;;;3.87;;
5604;SDS011;9297;47.258;11.362;2024-02-14T07:56:59;8.80;;;4.27;;
5604;SDS011;9297;47.258;11.362;2024-02-14T07:59:26;5.03;;;3.93;;
5604;SDS011;9297;47.258;11.362;2024-02-14T08:01:56;10.17;;;3.43;;
5604;SDS011;9297;47.258;11.362;2024-02-14T08:04:24;6.20;;;3.60;;
5604;SDS011;9297;47.258;11.362;2024-02-14T08:06:51;4.80;;;3.43;;
5604;SDS011;9297;47.258;11.362;2024-02-14T08:09:19;5.53;;;3.63;;
5604;SDS011;9297;47.258;11.362;2024-02-14T08:11:46;9.13;;;4.47;;
5604;SDS011;9297;47.258;11.362;2024-02-14T08:14:14;5.97;;;3.77;;
5604;SDS011;9297;47.258;11.362;2024-02-14T08:16:41;7.07;;;3.93;;
5604;SDS011;9297;47.258;11.362;2024-02-14T08:19:08;5.30;;;3.97;;
5604;SDS011;9297;47.258;11.362;2024-02-14T08:21:35;3.57;;;3.27;;
5604;SDS011;9297;47.258;11.362;2024-02-14T08:24:02;4.37;;;3.63;;
5604;SDS011;9297;47.258;11.362;2024-02-14T08:26:31;6.30;;;3.43;;
5604;SDS011;9297;47.258;11.362;2024-02-14T08:28:59;4.90;;;3.70;;
5604;SDS011;9297;47.258;11.362;2024-02-14T08:31:26;5.73;;;3.70;;
5604;SDS011;9297;47.258;11.362;2024-02-14T08:33:53;6.90;;;4.30;;
5604;SDS011;9297;47.258;11.362;2024-02-14T08:36:20;9.93;;;4.00;;
5604;SDS011;9297;47.258;11.362;2024-02-14T08:38:48;5.53;;;4.00;;
5604;SDS011;9297;47.258;11.362;2024-02-14T08:41:15;4.53;;;3.43;;
5604;SDS011;9297;47.258;11.362;2024-02-14T08:43:43;9.90;;;3.87;;
5604;SDS011;9297;47.258;11.362;2024-02-14T08:46:13;3.63;;;3.17;;
5604;SDS011;9297;47.258;11.362;2024-02-14T08:48:41;4.97;;;3.20;;
5604;SDS011;9297;47.258;11.362;2024-02-14T08:51:09;4.80;;;3.20;;
5604;SDS011;9297;47.258;11.362;2024-02-14T08:53:36;4.00;;;3.20;;
5604;SDS011;9297;47.258;11.362;2024-02-14T08:56:03;6.20;;;3.40;;
5604;SDS011;9297;47.258;11.362;2024-02-14T08:58:30;4.13;;;2.97;;
5604;SDS011;9297;47.258;11.362;2024-02-14T09:00:59;3.30;;;2.97;;
5604;SDS011;9297;47.258;11.362;2024-02-14T09:03:39;5.77;;;3.63;;
5604;SDS011;9297;47.258;11.362;2024-02-14T09:06:06;4.67;;;3.00;;
5604;SDS011;9297;47.258;11.362;2024-02-14T09:08:33;5.57;;;3.30;;
5604;SDS011;9297;47.258;11.362;2024-02-14T09:11:00;3.40;;;3.10;;
5604;SDS011;9297;47.258;11.362;2024-02-14T09:13:27;5.13;;;2.90;;
5604;SDS011;9297;47.258;11.362;2024-02-14T09:15:54;4.30;;;3.90;;
5604;SDS011;9297;47.258;11.362;2024-02-14T09:18:23;3.87;;;3.20;;
5604;SDS011;9297;47.258;11.362;2024-02-14T09:20:50;5.83;;;3.67;;
5604;SDS011;9297;47.258;11.362;2024-02-14T09:23:17;5.93;;;2.97;;
5604;SDS011;9297;47.258;11.362;2024-02-14T09:25:44;6.37;;;3.27;;
5604;SDS011;9297;47.258;11.362;2024-02-14T09:28:11;5.33;;;3.33;;
5604;SDS011;9297;47.258;11.362;2024-02-14T09:30:38;4.60;;;3.23;;
5604;SDS011;9297;47.258;11.362;2024-02-14T09:33:05;5.67;;;2.90;;
5604;SDS011;9297;47.258;11.362;2024-02-14T09:35:34;5.47;;;2.93;;
5604;SDS011;9297;47.258;11.362;2024-02-14T09:38:01;4.87;;;2.80;;
5604;SDS011;9297;47.258;11.362;2024-02-14T09:40:28;3.10;;;2.60;;
5604;SDS011;9297;47.258;11.362;2024-02-14T09:42:56;6.37;;;2.63;;
5604;SDS011;9297;47.258;11.362;2024-02-14T09:45:27;7.67;;;2.43;;
5604;SDS011;9297;47.258;11.362;2024-02-14T09:47:55;2.43;;;2.23;;
5604;SDS011;9297;47.258;11.362;2024-02-14T09:50:23;5.43;;;2.50;;
5604;SDS011;9297;47.258;11.362;2024-02-14T09:52:52;3.93;;;2.37;;
5604;SDS011;9297;47.258;11.362;2024-02-14T09:55:21;5.23;;;2.87;;
5604;SDS011;9297;47.258;11.362;2024-02-14T09:57:51;3.53;;;2.43;;
5604;SDS011;9297;47.258;11.362;2024-02-14T10:00:19;2.87;;;2.07;;
5604;SDS011;9297;47.258;11.362;2024-02-14T10:02:47;3.83;;;2.50;;
5604;SDS011;9297;47.258;11.362;2024-02-14T10:05:14;3.60;;;2.20;;
5604;SDS011;9297;47.258;11.362;2024-02-14T10:07:42;3.10;;;2.30;;
5604;SDS011;9297;47.258;11.362;2024-02-14T10:10:11;3.10;;;2.37;;
5604;SDS011;9297;47.258;11.362;2024-02-14T10:12:38;3.00;;;2.43;;
5604;SDS011;9297;47.258;11.362;2024-02-14T10:15:06;2.87;;;2.30;;
5604;SDS011;9297;47.258;11.362;2024-02-14T10:17:34;3.70;;;1.70;;
5604;SDS011;9297;47.258;11.362;2024-02-14T10:20:01;2.27;;;2.07;;
5604;SDS011;9297;47.258;11.362;2024-02-14T10:22:32;3.53;;;1.73;;
5604;SDS011;9297;47.258;11.362;2024-02-14T10:24:59;2.87;;;2.23;;
5604;SDS011;9297;47.258;11.362;2024-02-14T10:27:27;2.33;;;2.13;;
5604;SDS011;9297;47.258;11.362;2024-02-14T10:29:56;2.10;;;1.80;;
5604;SDS011;9297;47.258;11.362;2024-02-14T10:32:23;3.63;;;2.13;;
5604;SDS011;9297;47.258;11.362;2024-02-14T10:34:50;1.83;;;1.73;;
5604;SDS011;9297;47.258;11.362;2024-02-14T10:37:17;1.83;;;1.70;;
5604;SDS011;9297;47.258;11.362;2024-02-14T10:39:44;2.33;;;1.90;;
5604;SDS011;9297;47.258;11.362;2024-02-14T10:42:12;2.20;;;2.10;;
5604;SDS011;9297;47.258;11.362;2024-02-14T10:44:41;3.03;;;2.13;;
5604;SDS011;9297;47.258;11.362;2024-02-14T10:47:09;2.33;;;2.00;;
5604;SDS011;9297;47.258;11.362;2024-02-14T10:49:40;3.00;;;2.00;;
5604;SDS011;9297;47.258;11.362;2024-02-14T10:52:12;3.47;;;1.87;;
5604;SDS011;9297;47.258;11.362;2024-02-14T10:54:41;1.70;;;1.43;;
5604;SDS011;9297;47.258;11.362;2024-02-14T10:57:12;3.77;;;2.00;;
5604;SDS011;9297;47.258;11.362;2024-02-14T10:59:43;3.87;;;2.43;;
5604;SDS011;9297;47.258;11.362;2024-02-14T11:02:12;3.50;;;2.37;;
5604;SDS011;9297;47.258;11.362;2024-02-14T11:04:39;5.60;;;2.23;;
5604;SDS011;9297;47.258;11.362;2024-02-14T11:07:08;2.87;;;2.40;;
5604;SDS011;9297;47.258;11.362;2024-02-14T11:09:36;5.43;;;2.73;;
5604;SDS011;9297;47.258;11.362;2024-02-14T11:12:06;3.07;;;2.30;;
5604;SDS011;9297;47.258;11.362;2024-02-14T11:14:34;2.80;;;2.30;;
5604;SDS011;9297;47.258;11.362;2024-02-14T11:17:03;2.20;;;1.97;;
5604;SDS011;9297;47.258;11.362;2024-02-14T11:19:30;3.13;;;2.23;;
5604;SDS011;9297;47.258;11.362;2024-02-14T11:21:58;3.43;;;1.77;;
5604;SDS011;9297;47.258;11.362;2024-02-14T11:24:27;3.67;;;2.00;;
5604;SDS011;9297;47.258;11.362;2024-02-14T11:26:55;3.60;;;1.53;;
5604;SDS011;9297;47.258;11.362;2024-02-14T11:29:28;2.50;;;2.07;;
5604;SDS011;9297;47.258;11.362;2024-02-14T11:31:59;3.87;;;2.00;;
5604;SDS011;9297;47.258;11.362;2024-02-14T11:34:28;1.53;;;1.43;;
5604;SDS011;9297;47.258;11.362;2024-02-14T11:36:56;2.60;;;1.70;;
5604;SDS011;9297;47.258;11.362;2024-02-14T11:39:23;1.80;;;1.70;;
5604;SDS011;9297;47.258;11.362;2024-02-14T11:41:49;2.53;;;1.53;;
5604;SDS011;9297;47.258;11.362;2024-02-14T11:44:18;1.67;;;1.43;;
5604;SDS011;9297;47.258;11.362;2024-02-14T11:46:45;1.87;;;1.37;;
5604;SDS011;9297;47.258;11.362;2024-02-14T11:49:12;1.70;;;1.47;;
5604;SDS011;9297;47.258;11.362;2024-02-14T11:51:41;4.10;;;1.77;;
5604;SDS011;9297;47.258;11.362;2024-02-14T11:54:08;1.70;;;1.60;;
5604;SDS011;9297;47.258;11.362;2024-02-14T11:56:36;3.93;;;1.87;;
5604;SDS011;9297;47.258;11.362;2024-02-14T11:59:04;2.50;;;2.00;;
5604;SDS011;9297;47.258;11.362;2024-02-14T12:01:33;3.93;;;2.37;;
5604;SDS011;9297;47.258;11.362;2024-02-14T12:04:01;2.20;;;1.70;;
5604;SDS011;9297;47.258;11.362;2024-02-14T12:06:30;5.73;;;2.00;;
5604;SDS011;9297;47.258;11.362;2024-02-14T12:09:00;3.03;;;1.63;;
5604;SDS011;9297;47.258;11.362;2024-02-14T12:11:27;3.70;;;1.87;;
5604;SDS011;9297;47.258;11.362;2024-02-14T12:13:54;5.10;;;1.97;;
5604;SDS011;9297;47.258;11.362;2024-02-14T12:16:21;4.10;;;2.10;;
5604;SDS011;9297;47.258;11.362;2024-02-14T12:18:49;5.40;;;2.40;;
5604;SDS011;9297;47.258;11.362;2024-02-14T12:21:27;4.67;;;2.23;;
5604;SDS011;9297;47.258;11.362;2024-02-14T12:23:57;5.20;;;2.40;;
5604;SDS011;9297;47.258;11.362;2024-02-14T12:26:26;3.67;;;1.97;;
5604;SDS011;9297;47.258;11.362;2024-02-14T12:28:53;4.43;;;1.87;;
5604;SDS011;9297;47.258;11.362;2024-02-14T12:31:23;4.20;;;2.20;;
5604;SDS011;9297;47.258;11.362;2024-02-14T12:33:50;3.67;;;2.20;;
5604;SDS011;9297;47.258;11.362;2024-02-14T12:36:17;5.33;;;2.30;;
5604;SDS011;9297;47.258;11.362;2024-02-14T12:38:45;2.57;;;1.93;;
5604;SDS011;9297;47.258;11.362;2024-02-14T12:41:13;3.17;;;1.80;;
5604;SDS011;9297;47.258;11.362;2024-02-14T12:43:40;2.67;;;1.83;;
5604;SDS011;9297;47.258;11.362;2024-02-14T12:46:07;4.63;;;2.00;;
5604;SDS011;9297;47.258;11.362;2024-02-14T12:48:34;1.77;;;1.67;;
5604;SDS011;9297;47.258;11.362;2024-02-14T12:51:02;2.13;;;1.93;;
5604;SDS011;9297;47.258;11.362;2024-02-14T12:53:29;2.63;;;2.10;;
5604;SDS011;9297;47.258;11.362;2024-02-14T12:55:56;3.40;;;1.60;;
5604;SDS011;9297;47.258;11.362;2024-02-14T12:58:24;3.13;;;1.40;;
5604;SDS011;9297;47.258;11.362;2024-02-14T13:00:51;4.27;;;1.63;;
5604;SDS011;9297;47.258;11.362;2024-02-14T13:03:18;2.30;;;1.37;;
5604;SDS011;9297;47.258;11.362;2024-02-14T13:05:46;11.17;;;1.60;;
5604;SDS011;9297;47.258;11.362;2024-02-14T13:08:13;2.10;;;1.47;;
5604;SDS011;9297;47.258;11.362;2024-02-14T13:10:40;4.80;;;2.00;;
5604;SDS011;9297;47.258;11.362;2024-02-14T13:13:07;1.50;;;1.40;;
5604;SDS011;9297;47.258;11.362;2024-02-14T13:15:35;1.60;;;1.23;;
5604;SDS011;9297;47.258;11.362;2024-02-14T13:18:02;2.83;;;1.80;;
5604;SDS011;9297;47.258;11.362;2024-02-14T13:20:30;4.07;;;1.80;;
5604;SDS011;9297;47.258;11.362;2024-02-14T13:22:57;1.67;;;1.50;;
5604;SDS011;9297;47.258;11.362;2024-02-14T13:25:24;2.90;;;1.47;;
5604;SDS011;9297;47.258;11.362;2024-02-14T13:27:51;4.53;;;1.50;;
5604;SDS011;9297;47.258;11.362;2024-02-14T13:30:18;3.07;;;1.37;;
5604;SDS011;9297;47.258;11.362;2024-02-14T13:32:47;1.03;;;0.90;;
5604;SDS011;9297;47.258;11.362;2024-02-14T13:35:14;1.30;;;1.20;;
5604;SDS011;9297;47.258;11.362;2024-02-14T13:37:41;1.10;;;1.00;;
5604;SDS011;9297;47.258;11.362;2024-02-14T13:40:08;1.53;;;1.00;;
5604;SDS011;9297;47.258;11.362;2024-02-14T13:42:36;2.23;;;1.17;;
5604;SDS011;9297;47.258;11.362;2024-02-14T13:45:03;2.10;;;1.13;;
5604;SDS011;9297;47.258;11.362;2024-02-14T13:47:30;1.43;;;1.03;;
5604;SDS011;9297;47.258;11.362;2024-02-14T13:49:59;2.47;;;1.10;;
5604;SDS011;9297;47.258;11.362;2024-02-14T13:52:26;1.10;;;1.00;;
5604;SDS011;9297;47.258;11.362;2024-02-14T13:54:53;4.50;;;1.20;;
5604;SDS011;9297;47.258;11.362;2024-02-14T13:57:20;1.17;;;0.90;;
5604;SDS011;9297;47.258;11.362;2024-02-14T13:59:47;4.10;;;0.97;;
5604;SDS011;9297;47.258;11.362;2024-02-14T14:02:16;1.87;;;1.00;;
5604;SDS011;9297;47.258;11.362;2024-02-14T14:04:43;1.47;;;0.90;;
5604;SDS011;9297;47.258;11.362;2024-02-14T14:07:11;1.13;;;1.03;;
5604;SDS011;9297;47.258;11.362;2024-02-14T14:09:38;1.93;;;1.13;;
5604;SDS011;9297;47.258;11.362;2024-02-14T14:12:06;1.70;;;0.87;;
5604;SDS011;9297;47.258;11.362;2024-02-14T14:14:33;1.00;;;1.00;;
5604;SDS011;9297;47.258;11.362;2024-02-14T14:17:00;1.67;;;1.00;;
5604;SDS011;9297;47.258;11.362;2024-02-14T14:19:27;1.67;;;1.20;;
5604;SDS011;9297;47.258;11.362;2024-02-14T14:21:54;0.97;;;0.97;;
5604;SDS011;9297;47.258;11.362;2024-02-14T14:24:22;1.23;;;1.00;;
5604;SDS011;9297;47.258;11.362;2024-02-14T14:26:50;1.20;;;1.10;;
5604;SDS011;9297;47.258;11.362;2024-02-14T14:29:17;1.30;;;1.20;;
5604;SDS011;9297;47.258;11.362;2024-02-14T14:31:44;1.70;;;1.10;;
5604;SDS011;9297;47.258;11.362;2024-02-14T14:34:11;1.17;;;1.03;;
5604;SDS011;9297;47.258;11.362;2024-02-14T14:36:38;1.50;;;1.17;;
5604;SDS011;9297;47.258;11.362;2024-02-14T14:39:05;1.00;;;0.93;;
5604;SDS011;9297;47.258;11.362;2024-02-14T14:41:33;3.43;;;1.13;;
5604;SDS011;9297;47.258;11.362;2024-02-14T14:44:00;1.70;;;1.10;;
5604;SDS011;9297;47.258;11.362;2024-02-14T14:46:27;0.80;;;0.80;;
5604;SDS011;9297;47.258;11.362;2024-02-14T14:48:54;1.73;;;1.13;;
5604;SDS011;9297;47.258;11.362;2024-02-14T14:51:22;2.37;;;1.17;;
5604;SDS011;9297;47.258;11.362;2024-02-14T14:53:49;4.37;;;1.40;;
5604;SDS011;9297;47.258;11.362;2024-02-14T14:56:16;1.80;;;0.90;;
5604;SDS011;9297;47.258;11.362;2024-02-14T14:58:44;2.77;;;1.03;;
5604;SDS011;9297;47.258;11.362;2024-02-14T15:01:11;2.60;;;1.20;;